Time;durP1;ratioP1;P1;durP2;ratioP2;P2;SDS_P1;SDS_P2;PMS_P1;PMS_P2;Temp;Humidity;BMP_temperature;BMP_pressure;BME280_temperature;BME280_humidity;BME280_pressure;Samples;Min_cycle;Max_cycle;Signal;HPM_P1;HPM_P2
2023/12/20 00:01:26;;;;;;;;;;;0.50;88.10;;;;;;4993219;28;87465;-50
2023/12/20 00:03:52;;;;;;;;;;;0.50;88.00;;;;;;4999425;28;86985;-51
2023/12/20 00:06:17;;;;;;;;;;;0.50;88.10;;;;;;4995235;28;88481;-50
2023/12/20 00:08:44;;;;;;;;;;;0.50;88.10;;;;;;4996186;28;86855;-51
2023/12/20 00:11:09;;;;;;;;;;;0.50;88.10;;;;;;4997617;28;87011;-50
2023/12/20 00:13:35;;;;;;;;;;;0.50;88.20;;;;;;5000101;28;87321;-49
2023/12/20 00:16:00;;;;;;;;;;;0.50;88.20;;;;;;4999325;28;87039;-50
2023/12/20 00:18:26;;;;;;;;;;;0.50;88.10;;;;;;5000731;28;86999;-49
2023/12/20 00:20:51;;;;;;;;;;;0.50;88.10;;;;;;4996913;28;88630;-52
2023/12/20 00:23:17;;;;;;;;;;;0.50;88.20;;;;;;5001703;28;86142;-49
2023/12/20 00:25:42;;;;;;;;;;;0.50;88.00;;;;;;5000309;28;86933;-50
2023/12/20 00:28:08;;;;;;;;;;;0.50;88.10;;;;;;5000857;28;86980;-49
2023/12/20 00:30:34;;;;;;;;;;;0.50;88.00;;;;;;4999908;28;87913;-50
2023/12/20 00:32:59;;;;;;;;;;;0.50;88.00;;;;;;4996540;28;88566;-49
2023/12/20 00:35:25;;;;;;;;;;;0.50;88.10;;;;;;4997922;28;86994;-49
2023/12/20 00:37:50;;;;;;;;;;;0.50;88.00;;;;;;5001457;28;86898;-50
2023/12/20 00:40:16;;;;;;;;;;;0.40;88.00;;;;;;4999200;28;87389;-50
2023/12/20 00:42:41;;;;;;;;;;;0.40;88.10;;;;;;5001312;28;87044;-51
2023/12/20 00:45:07;;;;;;;;;;;0.40;88.00;;;;;;5000902;28;87051;-50
2023/12/20 00:47:33;;;;;;;;;;;0.40;88.10;;;;;;5000639;28;86830;-48
2023/12/20 00:49:58;;;;;;;;;;;0.40;88.20;;;;;;5000405;28;86966;-49
2023/12/20 00:52:24;;;;;;;;;;;0.40;88.20;;;;;;4996965;28;88401;-50
2023/12/20 00:54:49;;;;;;;;;;;0.40;88.20;;;;;;4999867;28;88089;-50
2023/12/20 00:57:15;;;;;;;;;;;0.40;87.90;;;;;;4996793;28;87822;-50
2023/12/20 00:59:41;;;;;;;;;;;0.40;88.00;;;;;;4995999;28;87548;-49
2023/12/20 01:02:06;;;;;;;;;;;0.40;88.00;;;;;;5000325;28;86919;-49
2023/12/20 01:04:32;;;;;;;;;;;0.40;88.10;;;;;;4999825;28;87036;-51
2023/12/20 01:06:57;;;;;;;;;;;0.40;88.20;;;;;;5000071;28;87500;-50
2023/12/20 01:09:26;;;;;;;;;;;0.40;88.30;;;;;;5000492;28;87155;-51
2023/12/20 01:11:52;;;;;;;;;;;0.30;88.10;;;;;;4993496;28;88016;-50
2023/12/20 01:14:17;;;;;;;;;;;0.30;88.20;;;;;;4997970;28;86872;-49
2023/12/20 01:16:43;;;;;;;;;;;0.40;88.30;;;;;;4998535;28;86940;-50
2023/12/20 01:19:09;;;;;;;;;;;0.30;88.20;;;;;;4998288;28;88355;-51
2023/12/20 01:21:34;;;;;;;;;;;0.30;88.10;;;;;;4997946;28;86796;-48
2023/12/20 01:24:00;;;;;;;;;;;0.30;88.80;;;;;;4997908;28;88710;-50
2023/12/20 01:26:25;;;;;;;;;;;0.30;88.30;;;;;;4999549;28;88629;-49
2023/12/20 01:28:51;;;;;;;;;;;0.30;88.30;;;;;;5001550;28;87046;-49
2023/12/20 01:31:16;;;;;;;;;;;0.30;88.30;;;;;;4999139;28;87592;-49
2023/12/20 01:33:42;;;;;;;;;;;0.30;88.30;;;;;;4996338;28;86996;-49
2023/12/20 01:36:07;;;;;;;;;;;0.30;88.20;;;;;;5000833;28;86597;-47
2023/12/20 01:38:33;;;;;;;;;;;0.30;88.30;;;;;;4998622;28;88264;-49
2023/12/20 01:40:59;;;;;;;;;;;0.30;88.50;;;;;;4996140;28;87063;-50
2023/12/20 01:43:25;;;;;;;;;;;0.30;88.30;;;;;;5000946;28;87884;-48
2023/12/20 01:45:51;;;;;;;;;;;0.30;88.30;;;;;;4997024;28;87437;-49
2023/12/20 01:48:17;;;;;;;;;;;0.30;88.30;;;;;;4999492;28;87069;-50
2023/12/20 01:50:44;;;;;;;;;;;0.30;88.30;;;;;;4999679;28;87034;-49
2023/12/20 01:53:10;;;;;;;;;;;0.30;88.20;;;;;;4997477;28;86968;-48
2023/12/20 01:55:38;;;;;;;;;;;0.30;88.10;;;;;;5000125;28;86891;-49
2023/12/20 01:58:04;;;;;;;;;;;0.20;88.20;;;;;;4998579;28;88526;-51
2023/12/20 02:00:30;;;;;;;;;;;0.30;88.30;;;;;;4999393;28;86254;-49
2023/12/20 02:02:56;;;;;;;;;;;0.20;88.10;;;;;;5002026;28;86910;-48
2023/12/20 02:05:22;;;;;;;;;;;0.20;88.30;;;;;;4997956;28;87461;-49
2023/12/20 02:07:48;;;;;;;;;;;0.30;88.10;;;;;;4996469;28;87942;-49
2023/12/20 02:10:13;;;;;;;;;;;0.20;88.30;;;;;;4996369;28;87604;-50
2023/12/20 02:12:39;;;;;;;;;;;0.20;88.40;;;;;;4997877;28;87407;-47
2023/12/20 02:15:05;;;;;;;;;;;0.20;88.20;;;;;;4997340;28;86879;-49
2023/12/20 02:17:31;;;;;;;;;;;0.20;88.10;;;;;;5000819;28;87252;-48
2023/12/20 02:19:57;;;;;;;;;;;0.20;88.30;;;;;;4995243;28;86916;-49
2023/12/20 02:22:22;;;;;;;;;;;0.20;88.20;;;;;;4995090;28;87687;-48
2023/12/20 02:24:48;;;;;;;;;;;0.20;88.30;;;;;;4999252;28;86793;-49
2023/12/20 02:27:15;;;;;;;;;;;0.20;88.30;;;;;;4994821;28;86988;-49
2023/12/20 02:29:40;;;;;;;;;;;0.20;88.00;;;;;;4995017;28;87116;-48
2023/12/20 02:32:06;;;;;;;;;;;0.20;88.20;;;;;;4995858;28;88392;-48
2023/12/20 02:34:31;;;;;;;;;;;0.20;88.30;;;;;;5001469;28;87567;-49
2023/12/20 02:36:57;;;;;;;;;;;0.20;88.20;;;;;;4994624;28;87653;-49
2023/12/20 02:39:23;;;;;;;;;;;0.10;88.10;;;;;;4993661;28;86970;-48
2023/12/20 02:41:48;;;;;;;;;;;0.10;88.10;;;;;;4996953;28;86855;-48
2023/12/20 02:44:14;;;;;;;;;;;0.10;88.30;;;;;;4996673;28;87395;-49
2023/12/20 02:46:39;;;;;;;;;;;0.10;88.20;;;;;;4995269;28;86940;-49
2023/12/20 02:49:05;;;;;;;;;;;0.10;88.50;;;;;;4997825;28;86659;-49
2023/12/20 02:51:31;;;;;;;;;;;0.10;88.10;;;;;;4994580;28;88718;-51
2023/12/20 02:53:57;;;;;;;;;;;0.10;88.40;;;;;;4995940;28;87091;-52
2023/12/20 02:56:22;;;;;;;;;;;0.00;88.40;;;;;;5000433;28;87776;-49
2023/12/20 02:58:48;;;;;;;;;;;0.10;88.60;;;;;;4995458;28;87000;-49
2023/12/20 03:01:14;;;;;;;;;;;0.10;88.40;;;;;;4998283;28;87012;-48
2023/12/20 03:03:39;;;;;;;;;;;0.10;88.70;;;;;;4997155;28;88576;-49
2023/12/20 03:06:05;;;;;;;;;;;0.00;88.20;;;;;;4995200;28;87283;-48
2023/12/20 03:08:30;;;;;;;;;;;0.10;88.40;;;;;;4998131;28;87211;-49
2023/12/20 03:10:56;;;;;;;;;;;0.10;88.50;;;;;;4994434;28;87522;-51
2023/12/20 03:13:22;;;;;;;;;;;0.10;88.10;;;;;;5000599;28;86231;-50
2023/12/20 03:15:47;;;;;;;;;;;0.10;88.20;;;;;;4997097;28;86847;-47
2023/12/20 03:18:13;;;;;;;;;;;0.00;88.20;;;;;;5000449;28;87472;-50
2023/12/20 03:20:38;;;;;;;;;;;0.00;88.20;;;;;;4996159;28;87914;-49
2023/12/20 03:23:04;;;;;;;;;;;0.00;88.40;;;;;;4995784;28;87457;-52
2023/12/20 03:25:29;;;;;;;;;;;0.00;88.20;;;;;;4998408;28;86919;-49
2023/12/20 03:27:55;;;;;;;;;;;0.00;88.40;;;;;;4997872;28;86865;-49
2023/12/20 03:30:21;;;;;;;;;;;0.00;88.50;;;;;;4994705;28;88437;-49
2023/12/20 03:32:46;;;;;;;;;;;0.00;88.30;;;;;;4998392;28;87270;-48
2023/12/20 03:35:12;;;;;;;;;;;0.00;88.50;;;;;;5001098;28;87127;-48
2023/12/20 03:37:38;;;;;;;;;;;0.00;88.30;;;;;;4997729;28;87139;-51
2023/12/20 03:40:04;;;;;;;;;;;0.00;88.30;;;;;;4994935;28;86995;-49
2023/12/20 03:42:29;;;;;;;;;;;-0.10;88.40;;;;;;4996975;28;88556;-48
2023/12/20 03:44:55;;;;;;;;;;;0.00;88.60;;;;;;4997801;28;87886;-51
2023/12/20 03:47:20;;;;;;;;;;;0.00;88.20;;;;;;4995509;28;87597;-48
2023/12/20 03:49:46;;;;;;;;;;;-0.10;88.20;;;;;;4998551;28;87627;-50
2023/12/20 03:52:12;;;;;;;;;;;-0.10;88.40;;;;;;4999162;28;86977;-50
2023/12/20 03:54:37;;;;;;;;;;;-0.10;88.10;;;;;;4999885;28;87740;-50
2023/12/20 03:57:03;;;;;;;;;;;-0.10;88.30;;;;;;4997399;28;87372;-48
2023/12/20 03:59:29;;;;;;;;;;;-0.10;88.30;;;;;;5004281;28;86962;-48
2023/12/20 04:01:54;;;;;;;;;;;-0.10;88.40;;;;;;4999219;28;87486;-48
2023/12/20 04:04:20;;;;;;;;;;;-0.10;88.30;;;;;;5002457;28;87083;-49
2023/12/20 04:06:45;;;;;;;;;;;-0.10;88.50;;;;;;4998007;28;87312;-47
2023/12/20 04:09:11;;;;;;;;;;;-0.10;88.40;;;;;;5000626;28;88273;-48
2023/12/20 04:11:37;;;;;;;;;;;-0.10;88.50;;;;;;5002551;28;87013;-47
2023/12/20 04:14:04;;;;;;;;;;;-0.10;88.40;;;;;;5000881;28;87010;-47
2023/12/20 04:16:30;;;;;;;;;;;-0.10;88.70;;;;;;4998315;28;87468;-49
2023/12/20 04:18:56;;;;;;;;;;;-0.10;88.30;;;;;;5003231;28;87746;-48
2023/12/20 04:21:21;;;;;;;;;;;-0.20;88.40;;;;;;5002225;28;87019;-48
2023/12/20 04:23:47;;;;;;;;;;;-0.20;88.50;;;;;;4999024;28;87042;-48
2023/12/20 04:26:12;;;;;;;;;;;-0.20;88.30;;;;;;4998145;28;86854;-48
2023/12/20 04:28:38;;;;;;;;;;;-0.20;88.50;;;;;;4998439;28;87403;-47
2023/12/20 04:31:03;;;;;;;;;;;-0.20;88.50;;;;;;4999927;28;87516;-48
2023/12/20 04:33:29;;;;;;;;;;;-0.20;88.50;;;;;;4996633;28;87911;-48
2023/12/20 04:35:55;;;;;;;;;;;-0.20;88.40;;;;;;5002353;28;87487;-48
2023/12/20 04:38:20;;;;;;;;;;;-0.20;88.60;;;;;;4996347;28;87021;-50
2023/12/20 04:40:46;;;;;;;;;;;-0.20;88.60;;;;;;5001376;28;87936;-51
2023/12/20 04:43:11;;;;;;;;;;;-0.30;88.40;;;;;;5001720;28;87455;-50
2023/12/20 04:45:37;;;;;;;;;;;-0.20;88.70;;;;;;4999282;28;86893;-49
2023/12/20 04:48:03;;;;;;;;;;;-0.30;88.50;;;;;;4993558;28;87026;-47
2023/12/20 04:50:28;;;;;;;;;;;-0.20;88.60;;;;;;4998707;28;86204;-49
2023/12/20 04:52:54;;;;;;;;;;;-0.30;88.40;;;;;;5000730;28;86766;-49
2023/12/20 04:55:19;;;;;;;;;;;-0.30;88.50;;;;;;4998929;28;87372;-49
2023/12/20 04:57:46;;;;;;;;;;;-0.30;88.60;;;;;;4999104;28;87964;-49
2023/12/20 05:00:12;;;;;;;;;;;-0.30;88.60;;;;;;4995950;28;89405;-49
2023/12/20 05:02:37;;;;;;;;;;;-0.30;88.40;;;;;;5002390;28;88585;-48
2023/12/20 05:05:03;;;;;;;;;;;-0.30;88.60;;;;;;4998436;28;86947;-48
2023/12/20 05:07:29;;;;;;;;;;;-0.30;88.50;;;;;;4999697;28;87331;-47
2023/12/20 05:09:54;;;;;;;;;;;-0.30;88.70;;;;;;5001422;28;87653;-49
2023/12/20 05:12:20;;;;;;;;;;;-0.30;88.50;;;;;;4997607;28;86861;-48
2023/12/20 05:14:46;;;;;;;;;;;-0.30;88.40;;;;;;5000285;28;86654;-50
2023/12/20 05:17:11;;;;;;;;;;;-0.30;88.60;;;;;;4996606;28;86945;-50
2023/12/20 05:19:37;;;;;;;;;;;-0.30;88.70;;;;;;4997423;28;87078;-48
2023/12/20 05:22:02;;;;;;;;;;;-0.30;88.50;;;;;;4996443;28;88314;-48
2023/12/20 05:24:28;;;;;;;;;;;-0.30;88.70;;;;;;5003426;28;87035;-49
2023/12/20 05:26:54;;;;;;;;;;;-0.40;88.40;;;;;;5000251;28;87886;-48
2023/12/20 05:29:19;;;;;;;;;;;-0.30;88.60;;;;;;4998562;28;86975;-49
2023/12/20 05:31:45;;;;;;;;;;;-0.40;88.40;;;;;;4996302;28;87340;-49
2023/12/20 05:34:11;;;;;;;;;;;-0.30;88.60;;;;;;4998401;28;87473;-48
2023/12/20 05:36:36;;;;;;;;;;;-0.40;88.50;;;;;;4999058;28;87504;-49
2023/12/20 05:39:03;;;;;;;;;;;-0.40;88.50;;;;;;4997716;28;86716;-47
2023/12/20 05:41:29;;;;;;;;;;;-0.40;88.50;;;;;;4999056;28;88461;-49
2023/12/20 05:43:55;;;;;;;;;;;-0.40;88.50;;;;;;5002783;28;86936;-49
2023/12/20 05:46:21;;;;;;;;;;;-0.40;88.50;;;;;;5004902;28;87898;-48
2023/12/20 05:48:47;;;;;;;;;;;-0.40;88.50;;;;;;4999751;28;87035;-48
2023/12/20 05:51:13;;;;;;;;;;;-0.40;88.60;;;;;;5000900;28;87732;-49
2023/12/20 05:53:38;;;;;;;;;;;-0.40;88.50;;;;;;4993861;28;88755;-49
2023/12/20 05:56:04;;;;;;;;;;;-0.40;88.60;;;;;;4994777;28;86948;-49
2023/12/20 05:58:29;;;;;;;;;;;-0.40;88.60;;;;;;5001599;28;87895;-48
2023/12/20 06:00:55;;;;;;;;;;;-0.50;88.50;;;;;;4993929;28;88001;-47
2023/12/20 06:03:21;;;;;;;;;;;-0.50;88.60;;;;;;4997540;28;87354;-47
2023/12/20 06:05:46;;;;;;;;;;;-0.40;88.70;;;;;;4999423;28;86940;-48
2023/12/20 06:08:12;;;;;;;;;;;-0.40;88.50;;;;;;5003515;28;87027;-49
2023/12/20 06:10:37;;;;;;;;;;;-0.50;88.70;;;;;;4993390;28;88605;-47
2023/12/20 06:13:04;;;;;;;;;;;-0.40;88.50;;;;;;4996076;28;87393;-48
2023/12/20 06:15:30;;;;;;;;;;;-0.50;88.50;;;;;;4997943;28;87052;-47
2023/12/20 06:17:55;;;;;;;;;;;-0.50;88.70;;;;;;5002647;28;86907;-48
2023/12/20 06:20:21;;;;;;;;;;;-0.50;88.60;;;;;;4996810;28;87418;-48
2023/12/20 06:22:46;;;;;;;;;;;-0.50;88.50;;;;;;4999129;28;87819;-50
2023/12/20 06:25:12;;;;;;;;;;;-0.50;88.80;;;;;;4997012;28;87706;-47
2023/12/20 06:27:38;;;;;;;;;;;-0.50;88.70;;;;;;4999364;28;87865;-48
2023/12/20 06:30:03;;;;;;;;;;;-0.50;88.70;;;;;;4998408;28;88601;-49
2023/12/20 06:32:29;;;;;;;;;;;-0.50;88.60;;;;;;4995070;28;87466;-51
2023/12/20 06:34:55;;;;;;;;;;;-0.50;88.60;;;;;;4998119;28;88161;-48
2023/12/20 06:37:20;;;;;;;;;;;-0.50;88.70;;;;;;4992345;28;87690;-48
2023/12/20 06:39:46;;;;;;;;;;;-0.50;88.70;;;;;;4991132;28;87491;-48
2023/12/20 06:42:12;;;;;;;;;;;-0.50;88.70;;;;;;4994901;28;87597;-47
2023/12/20 06:44:38;;;;;;;;;;;-0.50;88.60;;;;;;4995634;28;86917;-49
2023/12/20 06:47:04;;;;;;;;;;;-0.50;88.80;;;;;;4999696;28;88574;-48
2023/12/20 06:49:30;;;;;;;;;;;-0.50;88.60;;;;;;4992954;28;87417;-48
2023/12/20 06:51:55;;;;;;;;;;;-0.50;88.70;;;;;;5005096;28;87910;-47
2023/12/20 06:54:21;;;;;;;;;;;-0.60;88.70;;;;;;4992717;28;86963;-48
2023/12/20 06:56:46;;;;;;;;;;;-0.50;88.80;;;;;;4995579;28;88083;-51
2023/12/20 06:59:12;;;;;;;;;;;-0.60;88.50;;;;;;4998974;28;88360;-48
2023/12/20 07:01:37;;;;;;;;;;;-0.50;88.50;;;;;;4994898;28;87115;-48
2023/12/20 07:04:03;;;;;;;;;;;-0.60;88.50;;;;;;4998782;28;88235;-48
2023/12/20 07:06:29;;;;;;;;;;;-0.60;88.60;;;;;;4999441;28;87556;-47
2023/12/20 07:08:54;;;;;;;;;;;-0.50;88.70;;;;;;4992329;28;87041;-48
2023/12/20 07:11:20;;;;;;;;;;;-0.60;88.70;;;;;;4995853;28;86978;-50
2023/12/20 07:13:45;;;;;;;;;;;-0.60;88.60;;;;;;4996375;28;87452;-48
2023/12/20 07:16:11;;;;;;;;;;;-0.60;88.60;;;;;;4997739;28;87054;-47
2023/12/20 07:18:37;;;;;;;;;;;-0.60;88.50;;;;;;4992008;28;87426;-49
2023/12/20 07:21:03;;;;;;;;;;;-0.60;88.50;;;;;;4993963;28;86987;-48
2023/12/20 07:23:29;;;;;;;;;;;-0.60;88.50;;;;;;4998772;28;88763;-48
2023/12/20 07:25:54;;;;;;;;;;;-0.60;88.40;;;;;;4996027;28;88563;-48
2023/12/20 07:28:20;;;;;;;;;;;-0.60;88.50;;;;;;4993266;28;87128;-48
2023/12/20 07:30:45;;;;;;;;;;;-0.60;88.40;;;;;;5004092;28;87007;-49
2023/12/20 07:33:12;;;;;;;;;;;-0.60;88.40;;;;;;4997194;28;88766;-48
2023/12/20 07:35:37;;;;;;;;;;;-0.60;88.50;;;;;;4999856;28;87195;-48
2023/12/20 07:38:03;;;;;;;;;;;-0.60;88.40;;;;;;4997652;28;87019;-47
2023/12/20 07:40:29;;;;;;;;;;;-0.60;88.40;;;;;;4999691;28;86850;-47
2023/12/20 07:42:54;;;;;;;;;;;-0.60;88.40;;;;;;4999030;28;87545;-49
2023/12/20 07:45:20;;;;;;;;;;;-0.60;89.00;;;;;;5001698;28;87378;-48
2023/12/20 07:47:46;;;;;;;;;;;-0.60;88.40;;;;;;4998497;28;88575;-48
2023/12/20 07:50:11;;;;;;;;;;;-0.60;88.40;;;;;;4999579;28;88875;-48
2023/12/20 07:52:37;;;;;;;;;;;-0.60;88.20;;;;;;4998191;28;88607;-49
2023/12/20 07:55:04;;;;;;;;;;;-0.50;88.30;;;;;;4997402;28;87122;-48
2023/12/20 07:57:30;;;;;;;;;;;-0.60;88.20;;;;;;4994299;28;87567;-47
2023/12/20 07:59:55;;;;;;;;;;;-0.60;88.30;;;;;;4998384;28;87212;-49
2023/12/20 08:02:21;;;;;;;;;;;-0.60;88.20;;;;;;4994654;28;88735;-49
2023/12/20 08:04:47;;;;;;;;;;;-0.60;88.20;;;;;;4997248;28;88012;-48
2023/12/20 08:07:12;;;;;;;;;;;-0.60;88.30;;;;;;4995248;28;86992;-47
2023/12/20 08:09:38;;;;;;;;;;;-0.60;88.20;;;;;;4998946;28;87582;-49
2023/12/20 08:12:03;;;;;;;;;;;-0.50;88.30;;;;;;4991098;28;88342;-49
2023/12/20 08:14:29;;;;;;;;;;;-0.60;88.30;;;;;;4995926;28;86993;-48
2023/12/20 08:16:54;;;;;;;;;;;-0.50;88.40;;;;;;4999141;28;87282;-48
2023/12/20 08:19:20;;;;;;;;;;;-0.60;88.20;;;;;;4997020;28;87032;-48
2023/12/20 08:21:46;;;;;;;;;;;-0.60;88.20;;;;;;4997859;28;87279;-47
2023/12/20 08:24:11;;;;;;;;;;;-0.60;88.50;;;;;;4988641;28;87489;-48
2023/12/20 08:26:37;;;;;;;;;;;-0.60;88.50;;;;;;4992594;28;87101;-48
2023/12/20 08:29:02;;;;;;;;;;;-0.60;88.50;;;;;;4991317;28;86767;-48
2023/12/20 08:31:28;;;;;;;;;;;-0.60;88.50;;;;;;5000682;28;87296;-49
2023/12/20 08:33:54;;;;;;;;;;;-0.60;88.50;;;;;;4996652;28;87585;-49
2023/12/20 08:36:22;;;;;;;;;;;-0.60;88.70;;;;;;4996966;28;88896;-49
2023/12/20 08:38:47;;;;;;;;;;;-0.60;88.60;;;;;;4999126;28;87626;-48
2023/12/20 08:41:13;;;;;;;;;;;-0.70;88.60;;;;;;5002690;28;86924;-48
2023/12/20 08:43:42;;;;;;;;;;;-0.60;88.60;;;;;;4998338;28;87272;-49
2023/12/20 08:46:09;;;;;;;;;;;-0.70;88.60;;;;;;4993015;28;87003;-48
2023/12/20 08:48:35;;;;;;;;;;;-0.70;88.60;;;;;;4999827;28;88327;-50
2023/12/20 08:51:00;;;;;;;;;;;-0.60;88.70;;;;;;5003962;28;86902;-48
2023/12/20 08:53:26;;;;;;;;;;;-0.60;88.80;;;;;;4997342;28;86258;-49
2023/12/20 08:55:52;;;;;;;;;;;-0.60;88.60;;;;;;5000507;28;87583;-48
2023/12/20 08:58:17;;;;;;;;;;;-0.60;88.70;;;;;;4999583;28;87541;-47
2023/12/20 09:00:43;;;;;;;;;;;-0.60;88.70;;;;;;4995662;28;87976;-49
2023/12/20 09:03:09;;;;;;;;;;;-0.70;88.70;;;;;;5000260;28;87365;-48
2023/12/20 09:05:34;;;;;;;;;;;-0.70;88.70;;;;;;4998053;28;88414;-48
2023/12/20 09:08:00;;;;;;;;;;;-0.70;88.70;;;;;;5000805;28;86877;-48
2023/12/20 09:10:25;;;;;;;;;;;-0.60;88.70;;;;;;5001936;28;87482;-48
2023/12/20 09:12:56;;;;;;;;;;;-0.60;88.60;;;;;;4995413;28;87209;-48
2023/12/20 09:15:25;;;;;;;;;;;-0.70;88.60;;;;;;4996318;28;90483;-47
2023/12/20 09:17:50;;;;;;;;;;;-0.70;88.60;;;;;;4997435;28;87905;-48
2023/12/20 09:20:16;;;;;;;;;;;-0.60;88.70;;;;;;4999149;28;87045;-48
2023/12/20 09:22:42;;;;;;;;;;;-0.70;88.60;;;;;;5000798;28;87720;-49
2023/12/20 09:25:08;;;;;;;;;;;-0.70;88.80;;;;;;4996013;28;88048;-48
2023/12/20 09:27:33;;;;;;;;;;;-0.70;88.80;;;;;;4998897;28;87653;-48
2023/12/20 09:29:59;;;;;;;;;;;-0.70;88.70;;;;;;4997290;28;87283;-48
2023/12/20 09:32:24;;;;;;;;;;;-0.60;88.80;;;;;;4999964;28;87021;-48
2023/12/20 09:34:50;;;;;;;;;;;-0.60;88.80;;;;;;5000152;28;86922;-47
2023/12/20 09:37:15;;;;;;;;;;;-0.60;88.80;;;;;;5002537;28;87576;-48
2023/12/20 09:39:41;;;;;;;;;;;-0.60;88.80;;;;;;4997670;28;87375;-48
2023/12/20 09:42:07;;;;;;;;;;;-0.60;88.80;;;;;;5001619;28;87911;-49
2023/12/20 09:44:34;;;;;;;;;;;-0.60;88.80;;;;;;4994380;28;87270;-48
2023/12/20 09:47:01;;;;;;;;;;;-0.60;88.70;;;;;;5002368;28;87852;-49
2023/12/20 09:49:27;;;;;;;;;;;-0.60;88.60;;;;;;4997970;28;88421;-48
2023/12/20 09:51:53;;;;;;;;;;;-0.60;88.60;;;;;;5000761;28;86913;-49
2023/12/20 09:54:20;;;;;;;;;;;-0.50;88.60;;;;;;4994684;28;87702;-50
2023/12/20 09:56:46;;;;;;;;;;;-0.60;88.50;;;;;;4995543;28;87486;-49
2023/12/20 09:59:12;;;;;;;;;;;-0.50;88.70;;;;;;4998944;28;87063;-49
2023/12/20 10:01:41;;;;;;;;;;;-0.50;88.60;;;;;;4997795;28;87118;-48
2023/12/20 10:04:08;;;;;;;;;;;-0.60;88.50;;;;;;4998428;28;88544;-49
2023/12/20 10:06:44;;;;;;;;;;;-0.50;88.70;;;;;;4996860;28;87911;-51
2023/12/20 10:09:10;;;;;;;;;;;-0.60;88.70;;;;;;4995534;28;86804;-50
2023/12/20 10:11:37;;;;;;;;;;;-0.50;88.80;;;;;;4995522;28;86982;-48
2023/12/20 10:14:03;;;;;;;;;;;-0.50;88.40;;;;;;4997393;28;88064;-49
2023/12/20 10:16:29;;;;;;;;;;;-0.40;88.50;;;;;;4999411;28;87437;-50
2023/12/20 10:18:55;;;;;;;;;;;-0.40;88.40;;;;;;4997404;28;87061;-49
2023/12/20 10:21:22;;;;;;;;;;;-0.30;88.00;;;;;;4999283;28;88617;-52
2023/12/20 10:23:48;;;;;;;;;;;-0.40;87.90;;;;;;4996540;28;88421;-51
2023/12/20 10:26:21;;;;;;;;;;;-0.30;88.10;;;;;;5000975;28;87004;-49
2023/12/20 10:28:49;;;;;;;;;;;-0.30;88.10;;;;;;4998961;28;87440;-51
2023/12/20 10:31:28;;;;;;;;;;;-0.30;87.90;;;;;;4998474;28;86120;-49
2023/12/20 10:33:53;;;;;;;;;;;-0.40;88.50;;;;;;4997626;28;86940;-49
2023/12/20 10:36:19;;;;;;;;;;;-0.40;88.20;;;;;;4998702;28;87436;-48
2023/12/20 10:38:45;;;;;;;;;;;-0.40;88.50;;;;;;4998292;28;88050;-51
2023/12/20 10:41:11;;;;;;;;;;;-0.30;88.00;;;;;;4995614;28;87662;-48
2023/12/20 10:43:36;;;;;;;;;;;-0.40;88.10;;;;;;4998564;28;87511;-52
2023/12/20 10:46:03;;;;;;;;;;;-0.30;88.50;;;;;;4998945;28;86984;-50
2023/12/20 10:48:30;;;;;;;;;;;-0.30;88.50;;;;;;5003316;28;86986;-52
2023/12/20 10:50:56;;;;;;;;;;;-0.30;88.30;;;;;;4996968;28;86974;-50
2023/12/20 10:53:22;;;;;;;;;;;-0.30;88.00;;;;;;4995310;28;86877;-49
2023/12/20 10:55:49;;;;;;;;;;;-0.30;88.10;;;;;;4998445;28;86636;-49
2023/12/20 10:58:16;;;;;;;;;;;-0.30;87.90;;;;;;4997811;28;86989;-50
2023/12/20 11:00:43;;;;;;;;;;;-0.30;88.40;;;;;;4996100;28;89034;-51
2023/12/20 11:03:09;;;;;;;;;;;-0.30;88.00;;;;;;4995598;28;88413;-52
2023/12/20 11:05:50;;;;;;;;;;;-0.40;87.90;;;;;;4995054;28;86805;-50
2023/12/20 11:08:28;;;;;;;;;;;-0.40;87.90;;;;;;4996137;28;88105;-49
2023/12/20 11:11:00;;;;;;;;;;;-0.40;88.20;;;;;;5002232;28;86817;-49
2023/12/20 11:13:33;;;;;;;;;;;-0.40;88.30;;;;;;4996990;28;87569;-51
2023/12/20 11:15:59;;;;;;;;;;;-0.40;88.30;;;;;;4994424;28;88408;-50
2023/12/20 11:18:31;;;;;;;;;;;-0.40;88.40;;;;;;4991219;28;87052;-52
2023/12/20 11:21:00;;;;;;;;;;;-0.40;88.40;;;;;;4998203;28;86738;-49
2023/12/20 11:23:26;;;;;;;;;;;-0.40;88.30;;;;;;4998002;28;87492;-49
2023/12/20 11:25:52;;;;;;;;;;;-0.40;88.20;;;;;;5001912;28;87981;-49
2023/12/20 11:28:21;;;;;;;;;;;-0.40;88.30;;;;;;4991787;28;88250;-49
2023/12/20 11:31:00;;;;;;;;;;;-0.40;88.40;;;;;;4998286;28;88487;-49
2023/12/20 11:33:26;;;;;;;;;;;-0.40;88.70;;;;;;4998421;28;86960;-50
2023/12/20 11:35:55;;;;;;;;;;;-0.40;88.50;;;;;;4996705;28;88692;-49
2023/12/20 11:38:21;;;;;;;;;;;-0.40;88.70;;;;;;4996521;28;87027;-53
2023/12/20 11:40:48;;;;;;;;;;;-0.40;88.60;;;;;;4995641;28;88186;-50
2023/12/20 11:43:29;;;;;;;;;;;-0.40;88.60;;;;;;5000624;28;87585;-51
2023/12/20 11:45:54;;;;;;;;;;;-0.50;88.80;;;;;;5000843;28;86317;-51
2023/12/20 11:48:20;;;;;;;;;;;-0.40;88.80;;;;;;4994948;28;86834;-48
2023/12/20 11:50:46;;;;;;;;;;;-0.40;88.90;;;;;;4994134;28;88354;-50
2023/12/20 11:53:11;;;;;;;;;;;-0.40;88.70;;;;;;5000649;28;87932;-48
2023/12/20 11:55:37;;;;;;;;;;;-0.40;88.70;;;;;;4997341;28;87658;-49
2023/12/20 11:58:03;;;;;;;;;;;-0.40;89.00;;;;;;4997067;28;86750;-48
2023/12/20 12:00:29;;;;;;;;;;;-0.50;89.00;;;;;;4998607;28;88336;-48
2023/12/20 12:02:55;;;;;;;;;;;-0.40;89.00;;;;;;4996289;28;87488;-49
2023/12/20 12:05:20;;;;;;;;;;;-0.40;88.70;;;;;;4993220;28;87048;-50
2023/12/20 12:07:46;;;;;;;;;;;-0.30;89.00;;;;;;4997823;28;86865;-48
2023/12/20 12:10:11;;;;;;;;;;;-0.30;88.80;;;;;;4999374;28;86809;-48
2023/12/20 12:12:37;;;;;;;;;;;-0.30;88.60;;;;;;4999627;28;87029;-49
2023/12/20 12:15:03;;;;;;;;;;;-0.20;88.60;;;;;;5000054;28;87909;-49
2023/12/20 12:17:28;;;;;;;;;;;-0.20;88.50;;;;;;5000370;28;87910;-48
2023/12/20 12:20:02;;;;;;;;;;;-0.20;88.60;;;;;;5004361;28;87729;-48
2023/12/20 12:22:27;;;;;;;;;;;-0.10;88.50;;;;;;5001797;28;87364;-51
2023/12/20 12:24:54;;;;;;;;;;;-0.10;88.50;;;;;;4997721;28;87010;-47
2023/12/20 12:27:19;;;;;;;;;;;-0.10;88.40;;;;;;4999011;28;88029;-50
2023/12/20 12:30:02;;;;;;;;;;;-0.10;88.60;;;;;;5000903;28;87579;-47
2023/12/20 12:32:27;;;;;;;;;;;-0.10;88.30;;;;;;4999651;28;86880;-49
2023/12/20 12:34:53;;;;;;;;;;;-0.10;88.60;;;;;;5001459;28;89425;-46
2023/12/20 12:37:18;;;;;;;;;;;-0.10;88.70;;;;;;5007112;28;87760;-48
2023/12/20 12:39:46;;;;;;;;;;;-0.10;88.10;;;;;;4997489;28;87039;-48
2023/12/20 12:42:11;;;;;;;;;;;-0.10;88.60;;;;;;4992193;28;88269;-49
2023/12/20 12:44:37;;;;;;;;;;;-0.10;88.70;;;;;;5000795;28;87478;-48
2023/12/20 12:47:03;;;;;;;;;;;-0.10;88.50;;;;;;5007344;28;89477;-48
2023/12/20 12:49:29;;;;;;;;;;;-0.10;88.70;;;;;;4999895;28;88737;-47
2023/12/20 12:51:58;;;;;;;;;;;-0.10;88.60;;;;;;4996843;28;87236;-49
2023/12/20 12:54:23;;;;;;;;;;;-0.10;88.90;;;;;;4994430;28;87990;-49
2023/12/20 12:56:50;;;;;;;;;;;0.00;88.70;;;;;;5000497;28;87479;-50
2023/12/20 12:59:16;;;;;;;;;;;0.00;88.40;;;;;;5006223;28;86250;-48
2023/12/20 13:01:41;;;;;;;;;;;0.00;88.70;;;;;;4998091;28;88690;-48
2023/12/20 13:04:10;;;;;;;;;;;0.00;88.40;;;;;;5002537;28;87602;-48
2023/12/20 13:06:40;;;;;;;;;;;0.00;88.10;;;;;;4992431;28;87825;-48
2023/12/20 13:09:06;;;;;;;;;;;0.00;88.40;;;;;;4996729;28;88514;-47
2023/12/20 13:11:32;;;;;;;;;;;0.00;88.60;;;;;;4997995;28;87070;-47
2023/12/20 13:13:57;;;;;;;;;;;0.00;88.30;;;;;;4999909;28;86941;-48
2023/12/20 13:16:24;;;;;;;;;;;0.00;89.00;;;;;;5003586;28;87408;-48
2023/12/20 13:18:50;;;;;;;;;;;-0.10;88.50;;;;;;4999807;28;87078;-47
2023/12/20 13:21:16;;;;;;;;;;;0.00;88.70;;;;;;5002171;28;87836;-47
2023/12/20 13:23:41;;;;;;;;;;;-0.10;88.60;;;;;;4999064;28;86716;-46
2023/12/20 13:26:07;;;;;;;;;;;-0.10;88.60;;;;;;5002662;28;86993;-47
2023/12/20 13:28:33;;;;;;;;;;;0.00;89.00;;;;;;4996973;28;87633;-47
2023/12/20 13:30:58;;;;;;;;;;;0.00;88.80;;;;;;5002201;28;87999;-48
2023/12/20 13:33:24;;;;;;;;;;;-0.10;89.00;;;;;;4995311;28;87793;-49
2023/12/20 13:35:49;;;;;;;;;;;0.00;89.10;;;;;;5007747;28;87494;-47
2023/12/20 13:38:15;;;;;;;;;;;0.00;88.80;;;;;;5002453;28;86983;-47
2023/12/20 13:40:40;;;;;;;;;;;-0.10;89.00;;;;;;4995061;28;87577;-48
2023/12/20 13:43:06;;;;;;;;;;;0.00;88.80;;;;;;5000382;28;87280;-48
2023/12/20 13:45:31;;;;;;;;;;;0.00;89.20;;;;;;4996279;28;87189;-47
2023/12/20 13:47:58;;;;;;;;;;;0.00;89.00;;;;;;5004169;28;86527;-49
2023/12/20 13:50:24;;;;;;;;;;;0.00;89.00;;;;;;5001196;28;87739;-47
2023/12/20 13:52:49;;;;;;;;;;;0.10;88.90;;;;;;4995312;28;87054;-48
2023/12/20 13:55:15;;;;;;;;;;;0.10;88.70;;;;;;4996909;28;88233;-47
2023/12/20 13:57:41;;;;;;;;;;;0.00;88.80;;;;;;5006772;28;86956;-47
2023/12/20 14:00:14;;;;;;;;;;;0.10;89.30;;;;;;4997056;28;88098;-48
2023/12/20 14:02:39;;;;;;;;;;;0.10;89.20;;;;;;5003316;28;87654;-47
2023/12/20 14:05:06;;;;;;;;;;;0.10;88.80;;;;;;4998785;28;87020;-48
2023/12/20 14:07:31;;;;;;;;;;;0.10;89.60;;;;;;4996439;28;88584;-47
2023/12/20 14:09:59;;;;;;;;;;;0.10;89.30;;;;;;4997378;28;88028;-49
2023/12/20 14:12:24;;;;;;;;;;;0.10;89.10;;;;;;4995794;28;86923;-48
2023/12/20 14:14:50;;;;;;;;;;;0.00;89.10;;;;;;4997372;28;87309;-48